| << 2.5. | 4.5. >> |
|
Dirección del viento en Grado |
Velocidad del viento en km/h |
Ráfagas de viento en m/s |
Temperatura en °C |
Humedad rel. en % |
Windchill en °C |
Presión atm. en hPa |
Punto de rocío en °C |
Precipitación en mm |
Radiación global en W/m² |
|
|---|---|---|---|---|---|---|---|---|---|---|
| ▲ Máximos | 13,9 | 7,1 | 23,7 | 94,4 | 25,50 | 15,3 | 1182 | |||
| Ø Promedio | 295,3 | 7,2 | 3,4 | 16,9 | 70,8 | 17,27 | 11,2 | 344 | ||
| ▼ Mínimos | 2,1 | 1,1 | 11,0 | 28,9 | 10,98 | 2,9 | 6 | |||
| ∑ Total |
| Tiempo (UTC) | Dirección del viento en Grado | Velocidad del viento en km/h | Ráfagas de viento en m/s | Temperatura en °C | Humedad rel. en % | Windchill en °C | Presión atm. en hPa | Punto de rocío en °C | Precipitación en mm | Radiación global en W/m² |
|---|---|---|---|---|---|---|---|---|---|---|
| 00:00 | 299,9 | 6,7 | 3,4 | 13,6 | 94,2 | 13,49 | --- | 12,6 | --- | 7 |
| 00:10 | 303,6 | 7,1 | 3,2 | 13,6 | 94,2 | 13,45 | --- | 12,6 | --- | 7 |
| 00:20 | 305,1 | 8,0 | 3,5 | 13,7 | 94,3 | 13,34 | --- | 12,6 | --- | 7 |
| 00:30 | 302,1 | 7,7 | 3,9 | 13,7 | 94,3 | 13,39 | --- | 12,7 | --- | 7 |
| 00:40 | 302,2 | 7,7 | 3,4 | 13,7 | 94,3 | 13,38 | --- | 12,7 | --- | 7 |
| 00:50 | 300,0 | 8,7 | 4,2 | 13,6 | 94,3 | 13,12 | --- | 12,6 | --- | 7 |
| 01:00 | 303,4 | 10,2 | 4,6 | 13,5 | 94,3 | 12,80 | --- | 12,5 | --- | 7 |
| 01:10 | 290,3 | 8,3 | 3,8 | 13,4 | 94,3 | 12,96 | --- | 12,4 | --- | 7 |
| 01:20 | 294,8 | 7,8 | 3,5 | 13,3 | 94,3 | 12,98 | --- | 12,3 | --- | 7 |
| 01:30 | 292,0 | 8,3 | 4,5 | 13,3 | 94,3 | 12,85 | --- | 12,3 | --- | 7 |
| 01:40 | 297,0 | 8,1 | 4,4 | 13,3 | 94,3 | 12,85 | --- | 12,3 | --- | 7 |
| 01:50 | 289,6 | 6,8 | 3,8 | 13,2 | 94,3 | 13,02 | --- | 12,2 | --- | 7 |
| 02:00 | 288,1 | 7,5 | 3,5 | 13,2 | 94,3 | 12,84 | --- | 12,2 | --- | 7 |
| 02:10 | 284,0 | 8,1 | 3,6 | 13,0 | 94,2 | 12,58 | --- | 12,0 | --- | 7 |
| 02:20 | 272,7 | 8,6 | 4,0 | 12,9 | 94,3 | 12,38 | --- | 11,9 | --- | 7 |
| 02:30 | 283,3 | 10,3 | 4,4 | 12,8 | 94,3 | 11,97 | --- | 11,8 | --- | 7 |
| 02:40 | 276,6 | 11,5 | 5,2 | 12,8 | 94,3 | 11,77 | --- | 11,8 | --- | 7 |
| 02:50 | 281,3 | 9,7 | 4,4 | 12,7 | 94,2 | 11,90 | --- | 11,7 | --- | 7 |
| 03:00 | 286,6 | 10,1 | 5,2 | 12,7 | 94,2 | 11,87 | --- | 11,7 | --- | 7 |
| 03:10 | 282,9 | 7,2 | 3,0 | 12,5 | 94,0 | 12,14 | --- | 11,5 | --- | 7 |
| 03:20 | 280,6 | 7,7 | 3,4 | 12,4 | 94,1 | 11,86 | --- | 11,3 | --- | 7 |
| 03:30 | 278,1 | 7,7 | 3,4 | 12,4 | 94,4 | 11,90 | --- | 11,4 | --- | 7 |
| 03:40 | 278,9 | 6,8 | 2,8 | 12,4 | 94,4 | 12,10 | --- | 11,4 | --- | 7 |
| 03:50 | 272,3 | 5,7 | 2,5 | 12,3 | 94,2 | 12,14 | --- | 11,2 | --- | 7 |
| 04:00 | 261,7 | 5,6 | 2,3 | 12,2 | 94,3 | 12,07 | --- | 11,1 | --- | 7 |
| 04:10 | 255,3 | 5,7 | 2,5 | 12,2 | 94,4 | 12,12 | --- | 11,2 | --- | 7 |
| 04:20 | 254,0 | 4,7 | 1,8 | 12,2 | 94,3 | 12,33 | --- | 11,2 | --- | 7 |
| 04:30 | 261,6 | 5,7 | 2,1 | 12,0 | 94,0 | 11,85 | --- | 10,9 | --- | 7 |
| 04:40 | 258,2 | 5,3 | 2,1 | 11,6 | 93,6 | 11,48 | --- | 10,5 | --- | 7 |
| 04:50 | 247,6 | 4,7 | 2,0 | 11,0 | 92,5 | 10,98 | --- | 9,7 | --- | 7 |
| 05:00 | 250,6 | 7,0 | 3,3 | 11,5 | 88,0 | 11,00 | --- | 9,5 | --- | 6 |
| 05:10 | 255,5 | 6,2 | 2,4 | 12,6 | 80,1 | 12,37 | --- | 9,2 | --- | 6 |
| 05:20 | 257,6 | 6,2 | 2,4 | 13,0 | 74,4 | 12,91 | --- | 8,6 | --- | 7 |
| 05:30 | 262,8 | 5,9 | 2,4 | 13,2 | 72,4 | 13,14 | --- | 8,3 | --- | 7 |
| 05:40 | 263,4 | 7,0 | 2,9 | 13,0 | 72,6 | 12,74 | --- | 8,2 | --- | 7 |
| 05:50 | 265,5 | 7,0 | 2,9 | 13,0 | 72,6 | 12,65 | --- | 8,2 | --- | 7 |
| 06:00 | 260,5 | 7,7 | 3,2 | 12,9 | 72,9 | 12,43 | --- | 8,2 | --- | 8 |
| 06:10 | 260,5 | 8,6 | 3,7 | 13,2 | 70,4 | 12,65 | --- | 8,0 | --- | 8 |
| 06:20 | 278,8 | 9,2 | 4,4 | 13,2 | 69,3 | 12,61 | --- | 7,8 | --- | 10 |
| 06:30 | 272,9 | 8,9 | 4,2 | 13,3 | 70,9 | 12,72 | --- | 8,1 | --- | 23 |
| 06:40 | 269,2 | 7,9 | 3,4 | 13,3 | 70,3 | 12,85 | --- | 8,0 | --- | 45 |
| 06:50 | 281,8 | 8,4 | 3,3 | 13,3 | 70,2 | 12,84 | --- | 8,0 | --- | 42 |
| 07:00 | 277,6 | 9,4 | 3,8 | 13,3 | 69,5 | 12,69 | --- | 7,9 | --- | 40 |
| 07:10 | 278,9 | 8,5 | 3,5 | 13,4 | 67,9 | 12,91 | --- | 7,7 | --- | 70 |
| 07:20 | 281,0 | 8,1 | 3,2 | 13,8 | 67,3 | 13,49 | --- | 7,9 | --- | 170 |
| 07:30 | 292,0 | 6,0 | 2,7 | 14,4 | 68,9 | 14,58 | --- | 8,8 | --- | 224 |
| 07:40 | 296,4 | 6,2 | 2,9 | 15,2 | 71,7 | 15,37 | --- | 10,1 | --- | 294 |
| 07:50 | 299,9 | 6,1 | 2,7 | 15,9 | 69,3 | 16,24 | --- | 10,3 | --- | 333 |
| Tiempo (UTC) | Dirección del viento en Grado | Velocidad del viento en km/h | Ráfagas de viento en m/s | Temperatura en °C | Humedad rel. en % | Windchill en °C | Presión atm. en hPa | Punto de rocío en °C | Precipitación en mm | Radiación global en W/m² |
|---|---|---|---|---|---|---|---|---|---|---|
| 08:00 | 310,6 | 5,9 | 2,4 | 16,3 | 68,2 | 16,73 | --- | 10,5 | --- | 373 |
| 08:10 | 323,7 | 6,0 | 2,2 | 16,7 | 63,1 | 17,12 | --- | 9,7 | --- | 413 |
| 08:20 | 330,3 | 4,7 | 2,0 | 17,2 | 57,7 | 17,95 | --- | 9,0 | --- | 453 |
| 08:30 | 10,4 | 3,8 | 2,0 | 19,1 | 52,4 | 20,31 | --- | 9,4 | --- | 493 |
| 08:40 | 71,8 | 2,7 | 1,2 | 22,1 | 47,1 | 23,78 | --- | 10,6 | --- | 533 |
| 08:50 | 113,5 | 3,0 | 1,4 | 23,3 | 37,6 | 25,12 | --- | 8,6 | --- | 572 |
| 09:00 | 137,6 | 2,1 | 1,1 | 23,6 | 29,4 | 25,50 | --- | 5,6 | --- | 609 |
| 09:10 | 340,8 | 4,0 | 1,8 | 23,7 | 28,9 | 25,39 | --- | 5,5 | --- | 647 |
| 09:20 | 328,0 | 6,1 | 2,7 | 21,6 | 33,9 | 22,77 | --- | 5,7 | --- | 684 |
| 09:30 | 317,8 | 6,0 | 3,0 | 20,7 | 36,2 | 21,80 | --- | 5,8 | --- | 717 |
| 09:40 | 299,7 | 7,5 | 3,5 | 20,2 | 50,9 | 21,04 | --- | 10,0 | --- | 748 |
| 09:50 | 318,2 | 6,6 | 3,3 | 19,7 | 59,9 | 20,54 | --- | 11,9 | --- | 779 |
| 10:00 | 328,8 | 6,6 | 3,3 | 19,9 | 62,7 | 20,74 | --- | 12,7 | --- | 810 |
| 10:10 | 331,8 | 5,6 | 3,1 | 19,9 | 60,8 | 20,91 | --- | 12,3 | --- | 841 |
| 10:20 | 330,5 | 5,3 | 2,7 | 20,2 | 58,7 | 21,35 | --- | 12,1 | --- | 873 |
| 10:30 | 326,6 | 4,6 | 2,5 | 20,8 | 60,6 | 22,09 | --- | 13,1 | --- | 897 |
| 10:40 | 47,7 | 4,5 | 2,5 | 21,9 | 53,2 | 23,34 | --- | 12,2 | --- | 926 |
| 10:50 | 90,9 | 10,3 | 4,2 | 21,9 | 61,4 | 22,80 | --- | 14,3 | --- | 955 |
| 11:00 | 98,9 | 7,8 | 4,2 | 20,5 | 68,4 | 21,41 | --- | 14,6 | --- | 978 |
| 11:10 | 99,3 | 8,4 | 4,4 | 20,5 | 69,0 | 21,31 | --- | 14,7 | --- | 1001 |
| 11:20 | 105,4 | 8,9 | 4,6 | 20,4 | 70,6 | 21,15 | --- | 14,9 | --- | 1019 |
| 11:30 | 105,1 | 11,2 | 5,4 | 19,7 | 72,9 | 20,13 | --- | 14,8 | --- | 1033 |
| 11:40 | 104,5 | 10,3 | 4,8 | 19,3 | 75,5 | 19,77 | --- | 14,9 | --- | 1043 |
| 11:50 | 95,8 | 10,5 | 5,3 | 19,2 | 76,1 | 19,55 | --- | 14,9 | --- | 1061 |
| 12:00 | 103,9 | 11,7 | 5,0 | 18,9 | 76,4 | 19,19 | --- | 14,7 | --- | 987 |
| 12:10 | 102,6 | 9,0 | 4,4 | 18,9 | 77,5 | 19,32 | --- | 14,8 | --- | 895 |
| 12:20 | 98,0 | 7,2 | 3,8 | 19,0 | 76,9 | 19,72 | --- | 14,9 | --- | 708 |
| 12:30 | 88,0 | 5,9 | 3,6 | 19,4 | 75,9 | 20,31 | --- | 15,1 | --- | 507 |
| 12:40 | 335,0 | 5,5 | 3,7 | 19,6 | 73,8 | 20,58 | --- | 14,8 | --- | 716 |
| 12:50 | 308,8 | 7,9 | 4,2 | 19,8 | 71,9 | 20,56 | --- | 14,7 | --- | 1150 |
| 13:00 | 303,9 | 11,2 | 6,0 | 19,4 | 73,1 | 19,76 | --- | 14,5 | --- | 745 |
| 13:10 | 294,3 | 10,4 | 5,5 | 19,1 | 74,3 | 19,44 | --- | 14,4 | --- | 1182 |
| 13:20 | 306,8 | 9,8 | 5,0 | 18,9 | 73,7 | 19,30 | --- | 14,1 | --- | 1084 |
| 13:30 | 327,1 | 7,9 | 4,3 | 18,9 | 73,7 | 19,49 | --- | 14,1 | --- | 726 |
| 13:40 | 322,7 | 9,0 | 4,6 | 19,0 | 73,3 | 19,48 | --- | 14,2 | --- | 628 |
| 13:50 | 314,2 | 10,8 | 5,3 | 18,8 | 73,8 | 19,12 | --- | 14,1 | --- | 829 |
| 14:00 | 325,0 | 8,7 | 4,6 | 19,2 | 74,7 | 19,74 | --- | 14,6 | --- | 921 |
| 14:10 | 315,0 | 6,7 | 4,0 | 19,5 | 73,2 | 20,31 | --- | 14,6 | --- | 1037 |
| 14:20 | 344,3 | 7,4 | 3,3 | 20,8 | 69,5 | 21,72 | --- | 15,1 | --- | 1055 |
| 14:30 | 336,1 | 6,8 | 3,6 | 21,2 | 65,6 | 22,33 | --- | 14,6 | --- | 966 |
| 14:40 | 312,3 | 8,2 | 4,6 | 21,1 | 65,5 | 22,08 | --- | 14,5 | --- | 924 |
| 14:50 | 345,6 | 8,1 | 3,7 | 21,2 | 67,4 | 22,12 | --- | 15,0 | --- | 894 |
| 15:00 | 321,6 | 6,5 | 3,1 | 21,3 | 66,3 | 22,43 | --- | 14,9 | --- | 874 |
| 15:10 | 8,8 | 6,1 | 3,5 | 22,2 | 64,3 | 23,53 | --- | 15,3 | --- | 861 |
| 15:20 | 340,7 | 7,0 | 3,5 | 22,6 | 61,3 | 23,94 | --- | 15,0 | --- | 841 |
| 15:30 | 348,1 | 7,6 | 4,1 | 22,0 | 62,5 | 23,19 | --- | 14,7 | --- | 842 |
| 15:40 | 354,1 | 7,5 | 4,1 | 22,4 | 61,0 | 23,58 | --- | 14,6 | --- | 836 |
| 15:50 | 16,6 | 6,5 | 3,3 | 22,4 | 61,5 | 23,67 | --- | 14,8 | --- | 627 |
| Tiempo (UTC) | Dirección del viento en Grado | Velocidad del viento en km/h | Ráfagas de viento en m/s | Temperatura en °C | Humedad rel. en % | Windchill en °C | Presión atm. en hPa | Punto de rocío en °C | Precipitación en mm | Radiación global en W/m² |
|---|---|---|---|---|---|---|---|---|---|---|
| 16:00 | 346,1 | 6,2 | 3,3 | 22,0 | 61,6 | 23,23 | --- | 14,4 | --- | 642 |
| 16:10 | 330,0 | 4,3 | 2,7 | 22,3 | 61,4 | 23,81 | --- | 14,7 | --- | 763 |
| 16:20 | 352,1 | 6,1 | 2,9 | 22,9 | 59,2 | 24,28 | --- | 14,7 | --- | 728 |
| 16:30 | 10,8 | 6,8 | 3,2 | 23,7 | 57,1 | 25,18 | --- | 14,9 | --- | 753 |
| 16:40 | 329,2 | 7,1 | 3,5 | 23,6 | 57,8 | 25,06 | --- | 15,0 | --- | 702 |
| 16:50 | 311,0 | 8,0 | 3,9 | 22,4 | 61,4 | 23,61 | --- | 14,8 | --- | 682 |
| 17:00 | 311,7 | 6,7 | 3,5 | 22,1 | 61,9 | 23,34 | --- | 14,6 | --- | 571 |
| 17:10 | 310,7 | 7,0 | 3,1 | 22,3 | 61,6 | 23,50 | --- | 14,7 | --- | 497 |
| 17:20 | 307,2 | 6,6 | 3,2 | 22,0 | 61,2 | 23,22 | --- | 14,4 | --- | 460 |
| 17:30 | 306,3 | 8,9 | 5,5 | 21,5 | 63,3 | 22,48 | --- | 14,4 | --- | 452 |
| 17:40 | 294,4 | 11,4 | 5,1 | 21,0 | 65,6 | 21,65 | --- | 14,4 | --- | 424 |
| 17:50 | 297,3 | 13,0 | 6,3 | 19,8 | 69,4 | 20,13 | --- | 14,1 | --- | 399 |
| 18:00 | 288,7 | 13,9 | 7,1 | 18,8 | 69,5 | 18,90 | --- | 13,2 | --- | 348 |
| 18:10 | 289,2 | 12,4 | 6,4 | 18,2 | 69,3 | 18,23 | --- | 12,5 | --- | 305 |
| 18:20 | 303,7 | 11,1 | 5,6 | 18,1 | 67,6 | 18,26 | --- | 12,1 | --- | 283 |
| 18:30 | 307,5 | 9,4 | 4,7 | 17,9 | 68,8 | 18,17 | --- | 12,2 | --- | 213 |
| 18:40 | 302,8 | 8,2 | 3,9 | 17,7 | 70,2 | 18,01 | --- | 12,2 | --- | 100 |
| 18:50 | 299,4 | 8,4 | 3,7 | 17,4 | 72,4 | 17,68 | --- | 12,4 | --- | 125 |
| 19:00 | 301,1 | 6,7 | 3,0 | 17,4 | 75,3 | 17,82 | --- | 13,0 | --- | 60 |
| 19:10 | 296,5 | 6,7 | 3,1 | 16,6 | 78,6 | 16,92 | --- | 12,8 | --- | 24 |
| 19:20 | 291,8 | 5,1 | 2,6 | 15,9 | 80,9 | 16,49 | --- | 12,6 | --- | 18 |
| 19:30 | 285,5 | 6,9 | 2,7 | 15,6 | 82,3 | 15,75 | --- | 12,5 | --- | 12 |
| 19:40 | 281,5 | 7,2 | 3,0 | 15,2 | 83,8 | 15,28 | --- | 12,5 | --- | 9 |
| 19:50 | 279,8 | 6,5 | 2,6 | 15,1 | 85,5 | 15,23 | --- | 12,6 | --- | 7 |
| 20:00 | 285,0 | 6,7 | 2,6 | 14,9 | 86,8 | 14,94 | --- | 12,6 | --- | 7 |
| 20:10 | 268,5 | 6,5 | 2,7 | 14,5 | 85,6 | 14,60 | --- | 12,1 | --- | 7 |
| 20:20 | 276,6 | 7,8 | 3,4 | 14,8 | 78,3 | 14,71 | --- | 11,1 | --- | 7 |
| 20:30 | 278,5 | 7,4 | 2,9 | 15,2 | 74,6 | 15,20 | --- | 10,7 | --- | 7 |
| 20:40 | 276,2 | 7,4 | 3,0 | 15,0 | 77,1 | 14,97 | --- | 11,0 | --- | 7 |
| 20:50 | 268,0 | 7,7 | 3,7 | 15,0 | 72,9 | 14,88 | --- | 10,2 | --- | 7 |
| 21:00 | 266,6 | 7,4 | 3,3 | 15,3 | 68,8 | 15,31 | --- | 9,7 | --- | 7 |
| 21:10 | 251,3 | 4,9 | 2,1 | 15,3 | 58,3 | 15,78 | --- | 7,3 | --- | 7 |
| 21:20 | 296,5 | 2,8 | 2,2 | 15,5 | 50,9 | 17,81 | --- | 5,7 | --- | 7 |
| 21:30 | 288,1 | 4,7 | 2,0 | 15,6 | 50,9 | 16,19 | --- | 5,8 | --- | 7 |
| 21:40 | 260,8 | 5,1 | 2,0 | 15,4 | 54,5 | 15,86 | --- | 6,5 | --- | 7 |
| 21:50 | 255,5 | 5,3 | 2,1 | 15,2 | 58,3 | 15,62 | --- | 7,3 | --- | 7 |
| 22:00 | 248,6 | 5,5 | 2,0 | 15,1 | 60,8 | 15,43 | --- | 7,7 | --- | 7 |
| 22:10 | 225,4 | 3,3 | 1,3 | 15,1 | 55,9 | 16,01 | --- | 6,6 | --- | 7 |
| 22:20 | 221,4 | 3,6 | 1,3 | 15,1 | 51,7 | 15,90 | --- | 5,5 | --- | 7 |
| 22:30 | 213,8 | 3,2 | 1,3 | 15,1 | 50,1 | 16,08 | --- | 5,1 | --- | 7 |
| 22:40 | 218,3 | 3,8 | 1,3 | 15,1 | 47,8 | 15,86 | --- | 4,5 | --- | 7 |
| 22:50 | 237,1 | 4,4 | 1,6 | 15,0 | 46,9 | 15,62 | --- | 4,1 | --- | 7 |
| 23:00 | 254,2 | 4,6 | 1,7 | 15,1 | 44,7 | 15,60 | --- | 3,5 | --- | 7 |
| 23:10 | 262,1 | 5,9 | 2,3 | 15,1 | 43,7 | 15,39 | --- | 3,3 | --- | 7 |
| 23:20 | 260,8 | 5,8 | 2,1 | 15,1 | 43,2 | 15,39 | --- | 3,1 | --- | 7 |
| 23:30 | 265,6 | 6,0 | 2,2 | 15,1 | 44,0 | 15,31 | --- | 3,3 | --- | 7 |
| 23:40 | 269,6 | 6,1 | 2,6 | 15,2 | 42,3 | 15,47 | --- | 2,9 | --- | 7 |
| 23:50 | 264,8 | 5,4 | 2,0 | 15,2 | 42,9 | 15,55 | --- | 3,1 | --- | 7 |
| << 2.5. | 4.5. >> |